Time;durP1;ratioP1;P1;durP2;ratioP2;P2;SDS_P1;SDS_P2;PMS_P1;PMS_P2;Temp;Humidity;BMP_temperature;BMP_pressure;BME280_temperature;BME280_humidity;BME280_pressure;Samples;Min_cycle;Max_cycle;Signal;HPM_P1;HPM_P2
2023/07/04 00:02:39;0.00;0.00;0.62;0.00;0.00;0.62;4.60;3.37;;;29.00;23.60;;;;;;2236661;62;20361;-64
2023/07/04 00:05:23;0.00;0.00;0.62;0.00;0.00;0.62;4.67;3.23;;;29.00;23.60;;;;;;2236895;62;20374;-62
2023/07/04 00:08:08;0.00;0.00;0.62;0.00;0.00;0.62;3.50;3.07;;;29.00;23.60;;;;;;2235351;62;20363;-63
2023/07/04 00:10:56;0.00;0.00;0.62;0.00;0.00;0.62;6.40;3.57;;;29.00;23.60;;;;;;2236818;62;20385;-62
2023/07/04 00:13:41;0.00;0.00;0.62;0.00;0.00;0.62;4.70;3.20;;;29.00;24.10;;;;;;2236796;62;20437;-63
2023/07/04 00:16:26;0.00;0.00;0.62;0.00;0.00;0.62;4.90;2.90;;;29.00;23.60;;;;;;2236301;62;20782;-63
2023/07/04 00:19:11;0.00;0.00;0.62;0.00;0.00;0.62;3.47;3.07;;;29.00;23.50;;;;;;2236211;62;20409;-63
2023/07/04 00:21:57;0.00;0.00;0.62;0.00;0.00;0.62;3.87;3.23;;;29.00;23.50;;;;;;2235779;62;20421;-63
2023/07/04 00:24:41;0.00;0.00;0.62;0.00;0.00;0.62;4.03;2.80;;;29.00;23.60;;;;;;2236639;62;20904;-62
2023/07/04 00:27:27;0.00;0.00;0.62;0.00;0.00;0.62;4.57;2.90;;;28.90;23.50;;;;;;2236760;62;20391;-62
2023/07/04 00:30:12;0.00;0.00;0.62;0.00;0.00;0.62;3.23;2.93;;;29.00;23.50;;;;;;2234913;62;20366;-62
2023/07/04 00:32:57;0.00;0.00;0.62;0.00;0.00;0.62;4.10;2.87;;;28.90;23.50;;;;;;2236798;62;20402;-61
2023/07/04 00:35:45;0.00;0.00;0.62;0.00;0.00;0.62;4.40;3.20;;;28.90;23.50;;;;;;2233528;62;20928;-62
2023/07/04 00:38:32;0.00;0.00;0.62;0.00;0.00;0.62;3.50;2.93;;;28.90;23.50;;;;;;2235647;62;20972;-63
2023/07/04 00:41:21;0.00;0.00;0.62;0.00;0.00;0.62;4.33;3.10;;;28.90;23.50;;;;;;2236237;62;20871;-62
2023/07/04 00:44:24;0.00;0.00;0.62;0.00;0.00;0.62;3.83;2.27;;;28.90;23.50;;;;;;2235161;62;20406;-63
2023/07/04 00:47:15;0.00;0.00;0.62;0.00;0.00;0.62;4.93;2.93;;;29.00;23.50;;;;;;2236702;62;20370;-62
2023/07/04 00:50:07;0.00;0.00;0.62;0.00;0.00;0.62;3.27;2.83;;;28.90;23.50;;;;;;2235987;62;20782;-62
2023/07/04 00:52:55;0.00;0.00;0.62;0.00;0.00;0.62;2.67;1.90;;;29.00;23.60;;;;;;2235475;62;20933;-63
2023/07/04 00:55:44;0.00;0.00;0.62;0.00;0.00;0.62;4.33;3.20;;;28.90;23.50;;;;;;2236689;62;20925;-62
2023/07/04 00:58:31;0.00;0.00;0.62;0.00;0.00;0.62;6.30;3.27;;;28.90;23.50;;;;;;2235787;62;21406;-63
2023/07/04 01:01:19;0.00;0.00;0.62;0.00;0.00;0.62;6.13;3.80;;;28.90;23.50;;;;;;2236349;62;20370;-63
2023/07/04 01:04:04;0.00;0.00;0.62;0.00;0.00;0.62;3.90;3.37;;;28.90;23.50;;;;;;2236474;62;20398;-61
2023/07/04 01:06:55;0.00;0.00;0.62;0.00;0.00;0.62;5.40;4.20;;;29.00;23.50;;;;;;2235360;62;20942;-63
2023/07/04 01:09:45;0.00;0.00;0.62;0.00;0.00;0.62;4.97;3.80;;;28.90;23.50;;;;;;2235671;62;20363;-62
2023/07/04 01:12:30;0.00;0.00;0.62;0.00;0.00;0.62;5.20;4.40;;;28.90;23.50;;;;;;2236434;62;20938;-60
2023/07/04 01:15:16;0.00;0.00;0.62;0.00;0.00;0.62;5.07;4.33;;;28.90;23.50;;;;;;2235710;62;20374;-61
2023/07/04 01:18:02;0.00;0.00;0.62;0.00;0.00;0.62;7.80;5.23;;;28.90;24.00;;;;;;2236547;62;20397;-63
2023/07/04 01:20:49;0.00;0.00;0.62;0.00;0.00;0.62;5.83;5.10;;;28.90;23.60;;;;;;2235875;62;20901;-63
2023/07/04 01:23:44;0.00;0.00;0.62;0.00;0.00;0.62;6.07;4.80;;;28.90;23.50;;;;;;2236647;62;20465;-61
2023/07/04 01:26:34;0.00;0.00;0.62;0.00;0.00;0.62;5.83;5.10;;;28.90;23.50;;;;;;2236521;62;20367;-63
2023/07/04 01:29:19;0.00;0.00;0.62;0.00;0.00;0.62;5.93;4.67;;;28.90;23.50;;;;;;2235372;62;21010;-63
2023/07/04 01:32:05;0.00;0.00;0.62;0.00;0.00;0.62;7.30;5.20;;;28.90;23.50;;;;;;2236262;62;20382;-63
2023/07/04 01:34:58;0.00;0.00;0.62;0.00;0.00;0.62;6.23;5.13;;;28.90;23.60;;;;;;2236401;62;20458;-62
2023/07/04 01:37:43;0.00;0.00;0.62;0.00;0.00;0.62;5.80;5.00;;;28.90;23.60;;;;;;2236031;62;20402;-61
2023/07/04 01:40:30;0.00;0.00;0.62;0.00;0.00;0.62;5.60;4.60;;;28.90;23.50;;;;;;2235702;62;20366;-62
2023/07/04 01:43:17;0.00;0.00;0.62;0.00;0.00;0.62;6.40;4.37;;;28.90;24.10;;;;;;2235470;62;20422;-63
2023/07/04 01:46:02;0.00;0.00;0.62;0.00;0.00;0.62;6.07;4.80;;;28.90;23.60;;;;;;2236605;62;20422;-63
2023/07/04 01:48:49;0.00;0.00;0.62;0.00;0.00;0.62;5.63;4.80;;;28.90;23.60;;;;;;2235474;62;20422;-59
2023/07/04 01:51:37;0.00;0.00;0.62;0.00;0.00;0.62;5.73;5.03;;;28.90;23.60;;;;;;2235650;62;20374;-64
2023/07/04 01:54:21;0.00;0.00;0.62;0.00;0.00;0.62;5.13;4.17;;;28.90;23.60;;;;;;2233298;62;20381;-61
2023/07/04 01:57:10;0.00;0.00;0.62;0.00;0.00;0.62;6.20;4.37;;;28.90;23.50;;;;;;2236744;62;20466;-63
2023/07/04 01:59:56;0.00;0.00;0.62;0.00;0.00;0.62;5.33;4.10;;;28.90;23.60;;;;;;2235529;62;20389;-62
2023/07/04 02:02:43;0.00;0.00;0.62;0.00;0.00;0.62;5.07;3.80;;;28.90;23.60;;;;;;2236325;62;20398;-62
2023/07/04 02:05:28;0.00;0.00;0.62;0.00;0.00;0.62;5.40;3.60;;;28.90;23.60;;;;;;2235529;62;20451;-63
2023/07/04 02:08:12;0.00;0.00;0.62;0.00;0.00;0.62;5.07;3.90;;;28.90;23.60;;;;;;2236536;62;20426;-60
2023/07/04 02:10:57;0.00;0.00;0.62;0.00;0.00;0.62;5.50;3.07;;;28.90;23.60;;;;;;2235836;62;20391;-60
2023/07/04 02:13:43;0.00;0.00;0.62;0.00;0.00;0.62;4.30;3.00;;;28.90;23.60;;;;;;2235224;62;21100;-62
2023/07/04 02:16:29;0.00;0.00;0.62;0.00;0.00;0.62;4.20;3.10;;;28.90;23.60;;;;;;2236440;62;20909;-64
2023/07/04 02:19:14;0.00;0.00;0.62;0.00;0.00;0.62;4.10;3.40;;;28.90;23.60;;;;;;2236179;62;20426;-62
2023/07/04 02:21:58;0.00;0.00;0.62;0.00;0.00;0.62;3.10;2.53;;;28.90;23.60;;;;;;2235355;62;20358;-63
2023/07/04 02:24:43;0.00;0.00;0.62;0.00;0.00;0.62;3.23;2.40;;;28.90;23.60;;;;;;2236350;62;20937;-62
2023/07/04 02:27:28;0.00;0.00;0.62;0.00;0.00;0.62;3.43;3.13;;;28.90;23.60;;;;;;2235784;62;20381;-61
2023/07/04 02:30:13;0.00;0.00;0.62;0.00;0.00;0.62;2.57;1.83;;;28.90;23.60;;;;;;2236073;62;20495;-62
2023/07/04 02:33:00;0.00;0.00;0.62;0.00;0.00;0.62;3.03;2.20;;;28.90;23.60;;;;;;2236067;62;20362;-62
2023/07/04 02:35:46;0.00;0.00;0.62;0.00;0.00;0.62;3.20;2.50;;;28.90;23.60;;;;;;2234991;62;20451;-60
2023/07/04 02:38:31;0.00;0.00;0.62;0.00;0.00;0.62;2.13;1.80;;;28.90;23.60;;;;;;2235977;62;20382;-63
2023/07/04 02:41:16;0.00;0.00;0.62;0.00;0.00;0.62;3.87;2.77;;;28.90;23.60;;;;;;2235825;62;20365;-62
2023/07/04 02:44:03;0.00;0.00;0.62;0.00;0.00;0.62;2.70;1.80;;;28.90;23.60;;;;;;2232169;62;20414;-62
2023/07/04 02:46:48;0.00;0.00;0.62;0.00;0.00;0.62;2.37;1.83;;;28.90;23.60;;;;;;2235874;62;20375;-62
2023/07/04 02:49:35;0.00;0.00;0.62;0.00;0.00;0.62;2.37;1.90;;;28.90;23.60;;;;;;2235320;62;20382;-60
2023/07/04 02:52:21;0.00;0.00;0.62;0.00;0.00;0.62;3.23;1.70;;;28.90;23.60;;;;;;2232002;62;20375;-60
2023/07/04 02:55:07;0.00;0.00;0.62;0.00;0.00;0.62;2.90;1.90;;;28.80;23.50;;;;;;2232007;62;20411;-62
2023/07/04 02:57:54;0.00;0.00;0.62;0.00;0.00;0.62;3.00;2.00;;;28.90;23.60;;;;;;2231297;62;20367;-62
2023/07/04 03:00:39;0.00;0.00;0.62;0.00;0.00;0.62;2.23;1.97;;;28.90;23.60;;;;;;2231767;62;20431;-59
2023/07/04 03:03:24;0.00;0.00;0.62;0.00;0.00;0.62;2.73;1.37;;;28.80;23.50;;;;;;2231930;62;20753;-60
2023/07/04 03:06:11;0.00;0.00;0.62;0.00;0.00;0.62;2.37;1.67;;;28.90;23.60;;;;;;2231303;62;20786;-62
2023/07/04 03:08:56;0.00;0.00;0.62;0.00;0.00;0.62;2.13;1.33;;;28.90;23.60;;;;;;2231527;62;20367;-59
2023/07/04 03:11:42;0.00;0.00;0.62;0.00;0.00;0.62;2.27;1.70;;;28.80;23.60;;;;;;2231554;62;20448;-61
2023/07/04 03:14:29;0.00;0.00;0.62;0.00;0.00;0.62;1.90;1.47;;;28.90;23.60;;;;;;2232084;62;20829;-62
2023/07/04 03:17:14;0.00;0.00;0.62;0.00;0.00;0.62;2.40;1.53;;;28.90;23.60;;;;;;2231784;62;20383;-63
2023/07/04 03:19:59;0.00;0.00;0.62;0.00;0.00;0.62;2.17;1.50;;;28.80;23.60;;;;;;2230537;62;20471;-61
2023/07/04 03:22:46;0.00;0.00;0.62;0.00;0.00;0.62;2.40;1.43;;;28.80;23.60;;;;;;2231753;62;20428;-62
2023/07/04 03:25:31;0.00;0.00;0.62;0.00;0.00;0.62;1.93;1.33;;;28.80;23.60;;;;;;2232023;62;20367;-63
2023/07/04 03:28:17;0.00;0.00;0.62;0.00;0.00;0.62;1.57;1.07;;;28.80;23.60;;;;;;2230984;62;20358;-63
2023/07/04 03:31:02;0.00;0.00;0.62;0.00;0.00;0.62;1.70;1.10;;;28.80;23.60;;;;;;2231879;62;20371;-63
2023/07/04 03:33:50;0.00;0.00;0.62;0.00;0.00;0.62;2.00;1.60;;;28.80;23.60;;;;;;2231571;62;20420;-63
2023/07/04 03:36:35;0.00;0.00;0.62;0.00;0.00;0.62;2.00;1.27;;;28.80;23.60;;;;;;2231774;62;20367;-63
2023/07/04 03:39:22;0.00;0.00;0.62;0.00;0.00;0.62;2.47;1.63;;;28.80;23.60;;;;;;2231423;62;20431;-61
2023/07/04 03:42:07;0.00;0.00;0.62;0.00;0.00;0.62;1.90;1.13;;;28.80;23.70;;;;;;2230981;62;20371;-63
2023/07/04 03:44:52;0.00;0.00;0.62;0.00;0.00;0.62;2.13;1.17;;;28.80;23.60;;;;;;2232562;62;20382;-62
2023/07/04 03:47:37;0.00;0.00;0.62;0.00;0.00;0.62;2.17;1.63;;;28.80;23.60;;;;;;2232279;62;20366;-61
2023/07/04 03:50:23;0.00;0.00;0.62;0.00;0.00;0.62;2.00;1.20;;;28.80;23.60;;;;;;2231490;62;20386;-63
2023/07/04 03:53:08;0.00;0.00;0.62;0.00;0.00;0.62;2.10;1.43;;;28.80;23.70;;;;;;2233115;62;20417;-62
2023/07/04 03:55:55;0.00;0.00;0.62;0.00;0.00;0.62;1.70;1.27;;;28.80;23.60;;;;;;2235516;62;20383;-63
2023/07/04 03:58:40;0.00;0.00;0.62;0.00;0.00;0.62;2.80;1.47;;;28.80;23.60;;;;;;2235158;62;20466;-62
2023/07/04 04:01:25;0.00;0.00;0.62;0.00;0.00;0.62;1.57;1.00;;;28.80;23.60;;;;;;2236292;62;20362;-62
2023/07/04 04:04:09;0.00;0.00;0.62;0.00;0.00;0.62;2.00;1.20;;;28.70;23.60;;;;;;2235289;62;20398;-61
2023/07/04 04:06:56;0.00;0.00;0.62;0.00;0.00;0.62;1.70;1.10;;;28.80;23.70;;;;;;2236106;62;20908;-62
2023/07/04 04:09:42;0.00;0.00;0.62;0.00;0.00;0.62;2.03;1.30;;;28.80;23.70;;;;;;2235605;62;20361;-63
2023/07/04 04:12:28;0.00;0.00;0.62;0.00;0.00;0.62;1.60;1.00;;;28.70;23.60;;;;;;2235249;62;20451;-61
2023/07/04 04:15:13;0.00;0.00;0.62;0.00;0.00;0.62;1.90;1.10;;;28.70;23.60;;;;;;2236690;62;20374;-62
2023/07/04 04:17:58;0.00;0.00;0.62;0.00;0.00;0.62;1.50;0.87;;;28.70;23.60;;;;;;2236578;62;20482;-64
2023/07/04 04:20:43;0.00;0.00;0.62;0.00;0.00;0.62;1.90;1.07;;;28.80;23.70;;;;;;2236506;62;20370;-62
2023/07/04 04:23:27;0.00;0.00;0.62;0.00;0.00;0.62;1.70;1.20;;;28.70;23.70;;;;;;2236424;62;20426;-63
2023/07/04 04:26:14;0.00;0.00;0.62;0.00;0.00;0.62;2.30;1.40;;;28.70;23.60;;;;;;2235950;62;20425;-60
2023/07/04 04:29:01;0.00;0.00;0.62;0.00;0.00;0.62;2.00;1.30;;;28.70;23.70;;;;;;2236381;62;20362;-64
2023/07/04 04:31:47;0.00;0.00;0.62;0.00;0.00;0.62;1.50;1.00;;;28.70;23.60;;;;;;2236688;62;20507;-62
2023/07/04 04:34:32;0.00;0.00;0.62;0.00;0.00;0.62;2.20;1.23;;;28.70;23.60;;;;;;2235791;62;20391;-63
2023/07/04 04:37:16;0.00;0.00;0.62;0.00;0.00;0.62;1.50;1.00;;;28.70;23.70;;;;;;2236808;62;20375;-63
2023/07/04 04:40:01;0.00;0.00;0.62;0.00;0.00;0.62;1.70;0.90;;;28.70;23.70;;;;;;2236306;62;20426;-61
2023/07/04 04:42:47;0.00;0.00;0.62;0.00;0.00;0.62;1.93;0.93;;;28.70;23.70;;;;;;2236319;62;20451;-62
2023/07/04 04:45:33;0.00;0.00;0.62;0.00;0.00;0.62;2.10;1.07;;;28.70;23.70;;;;;;2236765;62;20967;-63
2023/07/04 04:48:19;0.00;0.00;0.62;0.00;0.00;0.62;1.60;0.90;;;28.70;23.70;;;;;;2235606;62;20418;-63
2023/07/04 04:51:07;0.00;0.00;0.62;0.00;0.00;0.62;1.60;0.90;;;28.70;23.70;;;;;;2236314;62;20451;-64
2023/07/04 04:53:53;0.00;0.00;0.62;0.00;0.00;0.62;1.80;1.10;;;28.70;23.70;;;;;;2232837;62;20800;-61
2023/07/04 04:56:40;0.00;0.00;0.62;0.00;0.00;0.62;2.33;1.10;;;28.70;23.70;;;;;;2231970;62;20894;-61
2023/07/04 04:59:24;0.00;0.00;0.62;0.00;0.00;0.62;2.60;1.37;;;28.70;23.70;;;;;;2232253;62;20442;-65
2023/07/04 05:02:10;0.00;0.00;0.62;0.00;0.00;0.62;1.63;0.90;;;28.70;23.70;;;;;;2232726;62;20411;-62
2023/07/04 05:04:55;0.00;0.00;0.62;0.00;0.00;0.62;3.00;1.13;;;28.70;23.70;;;;;;2232234;62;20920;-63
2023/07/04 05:07:40;0.00;0.00;0.62;0.00;0.00;0.62;1.40;1.00;;;28.70;23.70;;;;;;2232571;62;20367;-63
2023/07/04 05:10:24;0.00;0.00;0.62;0.00;0.00;0.62;1.80;1.00;;;28.70;23.70;;;;;;2231068;62;20391;-62
2023/07/04 05:13:09;0.00;0.00;0.62;0.00;0.00;0.62;2.03;1.20;;;28.70;23.70;;;;;;2232585;62;20431;-60
2023/07/04 05:15:58;0.00;0.00;0.62;0.00;0.00;0.62;1.70;0.90;;;28.70;23.70;;;;;;2232427;62;20387;-62
2023/07/04 05:18:46;0.00;0.00;0.62;0.00;0.00;0.62;2.50;1.20;;;28.70;23.70;;;;;;2231457;62;20450;-62
2023/07/04 05:21:31;0.00;0.00;0.62;0.00;0.00;0.62;2.17;0.93;;;28.70;23.70;;;;;;2232598;62;20942;-60
2023/07/04 05:24:16;0.00;0.00;0.62;0.00;0.00;0.62;2.40;1.13;;;28.70;23.70;;;;;;2232618;62;20378;-59
2023/07/04 05:27:00;0.00;0.00;0.62;0.00;0.00;0.62;1.97;1.03;;;28.70;23.70;;;;;;2232091;62;20371;-63
2023/07/04 05:29:48;0.00;0.00;0.62;0.00;0.00;0.62;1.63;0.97;;;28.70;23.70;;;;;;2232064;62;20363;-62
2023/07/04 05:32:32;0.00;0.00;0.62;0.00;0.00;0.62;1.83;1.20;;;28.70;23.70;;;;;;2231935;62;20408;-63
2023/07/04 05:35:19;0.00;0.00;0.62;0.00;0.00;0.62;2.00;1.27;;;28.70;23.70;;;;;;2232550;62;20410;-63
2023/07/04 05:38:03;0.00;0.00;0.62;0.00;0.00;0.62;1.93;1.27;;;28.70;23.80;;;;;;2232579;62;20456;-60
2023/07/04 05:40:48;0.00;0.00;0.62;0.00;0.00;0.62;2.10;1.13;;;28.70;23.80;;;;;;2231537;62;20451;-62
2023/07/04 05:43:33;0.00;0.00;0.62;0.00;0.00;0.62;1.87;1.13;;;28.70;23.70;;;;;;2232597;62;20573;-63
2023/07/04 05:46:18;0.00;0.00;0.62;0.00;0.00;0.62;2.60;1.20;;;28.70;23.80;;;;;;2232689;62;20367;-62
2023/07/04 05:49:04;0.00;0.00;0.62;0.00;0.00;0.62;2.20;1.27;;;28.70;23.80;;;;;;2231349;62;20785;-63
2023/07/04 05:51:50;0.00;0.00;0.62;0.00;0.00;0.62;1.60;1.00;;;28.70;23.80;;;;;;2233739;62;20406;-62
2023/07/04 05:54:35;0.00;0.00;0.62;0.00;0.00;0.62;2.30;1.40;;;28.70;23.80;;;;;;2235979;62;20806;-63
2023/07/04 05:57:20;0.00;0.00;0.62;0.00;0.00;0.62;1.77;1.10;;;28.70;23.80;;;;;;2236014;62;20435;-62
2023/07/04 06:00:07;0.00;0.00;0.62;0.00;0.00;0.62;1.90;1.07;;;28.70;23.80;;;;;;2235951;62;20390;-61
2023/07/04 06:02:57;0.00;0.00;0.62;0.00;0.00;0.62;1.90;1.10;;;28.70;23.80;;;;;;2235414;62;20458;-62
2023/07/04 06:05:42;0.00;0.00;0.62;0.00;0.00;0.62;1.67;1.00;;;28.70;23.80;;;;;;2236494;62;20909;-61
2023/07/04 06:08:28;0.00;0.00;0.62;0.00;0.00;0.62;1.83;1.13;;;28.70;23.80;;;;;;2236147;62;21047;-61
2023/07/04 06:11:13;0.00;0.00;0.62;0.00;0.00;0.62;2.07;1.37;;;28.70;23.80;;;;;;2235637;62;20374;-60
2023/07/04 06:13:57;0.00;0.00;0.62;0.00;0.00;0.62;1.70;1.00;;;28.70;23.80;;;;;;2236255;62;20386;-62
2023/07/04 06:16:42;0.00;0.00;0.62;0.00;0.00;0.62;1.43;0.93;;;28.70;23.80;;;;;;2235932;62;20921;-63
2023/07/04 06:19:27;0.00;0.00;0.62;0.00;0.00;0.62;1.67;0.93;;;28.70;23.80;;;;;;2235911;62;20811;-58
2023/07/04 06:22:12;0.00;0.00;0.62;0.00;0.00;0.62;2.30;1.57;;;28.70;23.80;;;;;;2236281;62;20362;-60
2023/07/04 06:24:58;0.00;0.00;0.62;0.00;0.00;0.62;1.77;1.00;;;28.70;23.80;;;;;;2235225;62;20430;-62
2023/07/04 06:27:44;0.00;0.00;0.62;0.00;0.00;0.62;3.30;1.23;;;28.70;23.80;;;;;;2236344;62;20393;-62
2023/07/04 06:30:29;0.00;0.00;0.62;0.00;0.00;0.62;2.10;1.43;;;28.70;23.80;;;;;;2236046;62;20767;-60
2023/07/04 06:33:14;0.00;0.00;0.62;0.00;0.00;0.62;1.63;1.03;;;28.70;23.80;;;;;;2235605;62;20522;-62
2023/07/04 06:36:00;0.00;0.00;0.62;0.00;0.00;0.62;2.80;1.43;;;28.70;23.80;;;;;;2236232;62;20362;-62
2023/07/04 06:38:44;0.00;0.00;0.62;0.00;0.00;0.62;2.00;1.40;;;28.70;23.80;;;;;;2235474;62;20398;-61
2023/07/04 06:41:30;0.00;0.00;0.62;0.00;0.00;0.62;2.50;1.40;;;28.70;23.80;;;;;;2235952;62;20409;-62
2023/07/04 06:44:15;0.00;0.00;0.62;0.00;0.00;0.62;2.10;1.30;;;28.70;23.80;;;;;;2236173;62;20391;-62
2023/07/04 06:47:00;0.00;0.00;0.62;0.00;0.00;0.62;2.50;1.60;;;28.70;23.80;;;;;;2235571;62;20807;-63
2023/07/04 06:49:45;0.00;0.00;0.62;0.00;0.00;0.62;2.03;1.20;;;28.70;24.40;;;;;;2235640;62;20418;-60
2023/07/04 06:52:32;0.00;0.00;0.62;0.00;0.00;0.62;2.67;1.40;;;28.70;23.80;;;;;;2232984;62;20426;-62
2023/07/04 06:55:17;0.00;0.00;0.62;0.00;0.00;0.62;2.53;1.63;;;28.70;23.90;;;;;;2235549;62;20366;-63
2023/07/04 06:58:05;0.00;0.00;0.62;0.00;0.00;0.62;2.53;1.80;;;28.70;23.90;;;;;;2235157;62;20419;-63
2023/07/04 07:00:55;0.00;0.00;0.62;0.00;0.00;0.62;2.73;1.63;;;28.80;24.00;;;;;;2235932;62;20378;-63
2023/07/04 07:03:40;0.00;0.00;0.62;0.00;0.00;0.62;2.00;1.23;;;28.70;23.90;;;;;;2236232;62;20953;-62
2023/07/04 07:06:27;0.00;0.00;0.62;0.00;0.00;0.62;2.03;1.57;;;28.80;24.50;;;;;;2236198;62;20378;-67
2023/07/04 07:09:11;0.00;0.00;0.62;0.00;0.00;0.62;3.43;1.80;;;28.80;24.00;;;;;;2235023;62;20361;-61
2023/07/04 07:11:56;0.00;0.00;0.62;0.00;0.00;0.62;2.10;1.50;;;28.80;24.00;;;;;;2236428;62;20766;-63
2023/07/04 07:14:42;0.00;0.00;0.62;0.00;0.00;0.62;2.67;1.73;;;28.70;23.90;;;;;;2236189;62;20390;-62
2023/07/04 07:17:26;0.00;0.00;0.62;0.00;0.00;0.62;1.90;1.63;;;28.80;24.00;;;;;;2235332;62;20771;-62
2023/07/04 07:20:11;0.00;0.00;0.62;0.00;0.00;0.62;2.80;1.67;;;28.70;23.90;;;;;;2235971;62;20487;-61
2023/07/04 07:22:56;0.00;0.00;0.62;0.00;0.00;0.62;2.30;1.40;;;28.70;23.90;;;;;;2236119;62;20366;-62
2023/07/04 07:25:40;0.00;0.00;0.62;0.00;0.00;0.62;3.53;1.67;;;28.80;24.00;;;;;;2235978;62;20427;-63
2023/07/04 07:28:27;0.00;0.00;0.62;0.00;0.00;0.62;2.60;1.70;;;28.80;24.00;;;;;;2235905;62;20467;-62
2023/07/04 07:31:20;0.00;0.00;0.62;0.00;0.00;0.62;2.23;1.47;;;28.80;24.00;;;;;;2235157;62;20511;-66
2023/07/04 07:34:05;0.00;0.00;0.62;0.00;0.00;0.62;1.80;1.33;;;28.80;24.00;;;;;;2236215;62;20394;-62
2023/07/04 07:36:50;0.00;0.00;0.62;0.00;0.00;0.62;3.20;1.67;;;28.80;24.00;;;;;;2236254;62;20373;-63
2023/07/04 07:39:35;0.00;0.00;0.62;0.00;0.00;0.62;2.23;1.63;;;28.80;24.00;;;;;;2234763;62;20382;-62
2023/07/04 07:42:20;0.00;0.00;0.62;0.00;0.00;0.62;2.70;1.77;;;28.80;24.00;;;;;;2236253;62;20405;-60
2023/07/04 07:45:06;0.00;0.00;0.62;0.00;0.00;0.62;2.27;1.50;;;28.80;24.00;;;;;;2236292;62;20386;-61
2023/07/04 07:47:52;0.00;0.00;0.62;0.00;0.00;0.62;3.50;1.70;;;28.80;24.00;;;;;;2235785;61;20507;-63
2023/07/04 07:50:36;0.00;0.00;0.62;0.00;0.00;0.62;2.40;1.70;;;28.80;24.00;;;;;;2236704;62;20394;-61
2023/07/04 07:53:21;0.00;0.00;0.62;0.00;0.00;0.62;2.70;1.57;;;28.80;24.00;;;;;;2235881;62;20411;-63
2023/07/04 07:56:07;0.00;0.00;0.62;0.00;0.00;0.62;3.30;1.93;;;28.80;24.10;;;;;;2237039;62;20370;-63
2023/07/04 07:58:52;0.00;0.00;0.62;0.00;0.00;0.62;2.03;1.80;;;28.80;24.10;;;;;;2236575;62;20438;-59
2023/07/04 08:01:38;0.00;0.00;0.62;0.00;0.00;0.62;2.37;1.50;;;28.80;24.10;;;;;;2236040;62;20774;-62
2023/07/04 08:07:21;0.00;0.00;0.62;0.00;0.00;0.62;2.30;1.60;;;28.80;24.10;;;;;;2230842;62;20388;-65
2023/07/04 08:10:06;0.00;0.00;0.62;0.00;0.00;0.62;2.67;1.30;;;28.80;24.10;;;;;;2228234;62;20369;-60
2023/07/04 08:12:52;0.00;0.00;0.62;0.00;0.00;0.62;3.00;1.87;;;28.80;24.10;;;;;;2228962;62;20375;-62
2023/07/04 08:15:37;0.00;0.00;0.62;0.00;0.00;0.62;1.83;1.37;;;28.80;24.10;;;;;;2228029;62;20396;-63
2023/07/04 08:18:22;0.00;0.00;0.62;0.00;0.00;0.62;2.10;1.47;;;28.80;24.10;;;;;;2228770;62;20461;-58
2023/07/04 08:21:08;0.00;0.00;0.62;0.00;0.00;0.62;2.17;1.60;;;28.80;24.10;;;;;;2229052;62;20454;-61
2023/07/04 08:23:54;0.00;0.00;0.62;0.00;0.00;0.62;2.90;1.93;;;28.80;24.10;;;;;;2227881;62;20435;-61
2023/07/04 08:26:40;0.00;0.00;0.62;0.00;0.00;0.62;2.70;1.60;;;28.80;24.10;;;;;;2229204;62;20958;-63
2023/07/04 08:29:25;0.00;0.00;0.62;0.00;0.00;0.62;1.93;1.40;;;28.80;24.10;;;;;;2228446;62;20364;-63
2023/07/04 08:32:10;0.00;0.00;0.62;0.00;0.00;0.62;2.47;1.43;;;28.80;24.10;;;;;;2228330;62;20385;-63
2023/07/04 08:34:55;0.00;0.00;0.62;0.00;0.00;0.62;2.77;1.57;;;28.80;24.10;;;;;;2228524;62;20431;-63
2023/07/04 08:37:40;0.00;0.00;0.62;0.00;0.00;0.62;2.60;1.70;;;28.80;24.10;;;;;;2228154;62;20413;-62
2023/07/04 08:40:26;0.00;0.00;0.62;0.00;0.00;0.62;3.90;1.60;;;28.80;24.10;;;;;;2228363;62;20856;-62
2023/07/04 08:43:11;0.00;0.00;0.62;0.00;0.00;0.62;2.40;1.70;;;28.80;24.10;;;;;;2228969;62;20388;-62
2023/07/04 08:45:57;0.00;0.00;0.62;0.00;0.00;0.62;1.87;1.33;;;28.90;24.20;;;;;;2228145;62;20367;-63
2023/07/04 08:48:44;0.00;0.00;0.62;0.00;0.00;0.62;1.93;1.43;;;28.80;24.10;;;;;;2228631;62;20377;-63
2023/07/04 08:51:35;0.00;0.00;0.62;0.00;0.00;0.62;2.17;1.47;;;28.90;24.20;;;;;;2228952;62;20381;-63
2023/07/04 08:54:20;0.00;0.00;0.62;0.00;0.00;0.62;2.40;1.70;;;28.90;24.20;;;;;;2229039;62;20444;-64
2023/07/04 08:57:18;0.00;0.00;0.62;0.00;0.00;0.62;2.67;1.90;;;28.80;24.20;;;;;;2229749;62;20368;-63
2023/07/04 09:00:10;0.00;0.00;0.62;0.00;0.00;0.62;1.80;1.40;;;28.90;24.30;;;;;;2228491;62;21007;-63
2023/07/04 09:03:22;0.00;0.00;0.62;0.00;0.00;0.62;1.80;1.20;;;28.80;24.20;;;;;;2229644;62;20392;-63
2023/07/04 09:06:16;0.00;0.00;0.62;0.00;0.00;0.62;3.00;1.67;;;28.80;24.20;;;;;;2231506;62;20376;-63
2023/07/04 09:09:12;0.00;0.00;0.62;0.00;0.00;0.62;3.07;1.77;;;28.80;24.20;;;;;;2232712;62;20370;-61
2023/07/04 09:11:57;0.00;0.00;0.62;0.00;0.00;0.62;2.00;1.40;;;28.80;24.30;;;;;;2232945;62;20366;-64
2023/07/04 09:14:51;0.00;0.00;0.62;0.00;0.00;0.62;2.37;1.40;;;28.90;24.30;;;;;;2229879;62;20450;-63
2023/07/04 09:17:48;0.00;0.00;0.62;0.00;0.00;0.62;2.20;1.60;;;28.80;24.30;;;;;;2233846;62;20427;-64
2023/07/04 09:20:40;0.00;0.00;0.62;0.00;0.00;0.62;1.90;1.43;;;28.80;24.30;;;;;;2233200;62;20864;-63
2023/07/04 09:23:25;0.00;0.00;0.62;0.00;0.00;0.62;2.53;1.20;;;28.80;24.30;;;;;;2232736;62;20400;-62
2023/07/04 09:26:14;0.00;0.00;0.62;0.00;0.00;0.62;2.30;1.63;;;28.80;24.30;;;;;;2233606;62;20368;-63
2023/07/04 09:29:00;0.00;0.00;0.62;0.00;0.00;0.62;2.27;1.47;;;28.80;24.30;;;;;;2229715;62;20359;-62
2023/07/04 09:31:47;0.00;0.00;0.62;0.00;0.00;0.62;1.90;1.23;;;28.90;24.30;;;;;;2233515;62;20793;-62
2023/07/04 09:34:39;0.00;0.00;0.62;0.00;0.00;0.62;1.60;1.20;;;28.90;24.40;;;;;;2233522;62;20395;-63
2023/07/04 09:37:25;0.00;0.00;0.62;0.00;0.00;0.62;2.20;1.40;;;28.80;24.30;;;;;;2232924;62;20391;-63
2023/07/04 09:40:11;0.00;0.00;0.62;0.00;0.00;0.62;2.80;1.57;;;28.90;24.30;;;;;;2232889;62;20832;-64
2023/07/04 09:42:56;0.00;0.00;0.62;0.00;0.00;0.62;2.00;1.37;;;28.90;24.30;;;;;;2233647;62;20894;-63
2023/07/04 09:45:42;0.00;0.00;0.62;0.00;0.00;0.62;2.00;1.37;;;28.80;24.30;;;;;;2230023;62;20451;-63
2023/07/04 09:48:32;0.00;0.00;0.62;0.00;0.00;0.62;1.80;1.30;;;28.90;24.30;;;;;;2229972;62;20387;-63
2023/07/04 09:51:27;0.00;0.00;0.62;0.00;0.00;0.62;2.13;1.37;;;28.90;24.30;;;;;;2232776;62;20436;-62
2023/07/04 09:54:15;0.00;0.00;0.62;0.00;0.00;0.62;3.33;1.83;;;28.90;24.40;;;;;;2233286;62;20391;-63
2023/07/04 09:57:20;0.00;0.00;0.62;0.00;0.00;0.62;2.27;1.50;;;28.90;24.30;;;;;;2233587;62;20383;-64
2023/07/04 10:00:21;0.00;0.00;0.62;0.00;0.00;0.62;1.70;1.10;;;28.90;24.30;;;;;;2231902;62;20472;-63
2023/07/04 10:03:07;0.00;0.00;0.62;0.00;0.00;0.62;2.50;1.60;;;28.90;24.30;;;;;;2233296;62;20374;-63
2023/07/04 10:05:53;0.00;0.00;0.62;0.00;0.00;0.62;2.13;1.37;;;28.80;24.30;;;;;;2229979;62;20391;-63
2023/07/04 10:08:49;0.00;0.00;0.62;0.00;0.00;0.62;2.53;1.40;;;28.90;24.30;;;;;;2232821;62;20461;-61
2023/07/04 10:11:39;0.00;0.00;0.62;0.00;0.00;0.62;3.30;1.30;;;28.90;24.40;;;;;;2233345;62;20378;-62
2023/07/04 10:14:34;0.00;0.00;0.62;0.00;0.00;0.62;2.53;1.50;;;28.90;24.30;;;;;;2232541;62;20443;-63
2023/07/04 10:17:22;0.00;0.00;0.62;0.00;0.00;0.62;2.20;1.20;;;28.90;24.30;;;;;;2230263;62;20414;-62
2023/07/04 10:20:13;0.00;0.00;0.62;0.00;0.00;0.62;1.80;1.10;;;28.90;24.30;;;;;;2233059;62;20918;-62
2023/07/04 10:22:59;0.00;0.00;0.62;0.00;0.00;0.62;3.10;1.50;;;28.90;24.30;;;;;;2232491;62;20452;-63
2023/07/04 10:25:44;0.00;0.00;0.62;0.00;0.00;0.62;1.97;1.40;;;28.90;24.30;;;;;;2233648;62;20368;-63
2023/07/04 10:28:29;0.00;0.00;0.62;0.00;0.00;0.62;1.67;1.20;;;28.90;24.30;;;;;;2229287;62;20894;-62
2023/07/04 10:31:21;0.00;0.00;0.62;0.00;0.00;0.62;1.70;1.20;;;28.90;24.30;;;;;;2233475;62;20458;-63
2023/07/04 10:34:09;0.00;0.00;0.62;0.00;0.00;0.62;1.90;1.20;;;28.90;24.30;;;;;;2233145;62;20806;-62
2023/07/04 10:36:56;0.00;0.00;0.62;0.00;0.00;0.62;1.77;1.20;;;28.90;24.30;;;;;;2232455;62;20399;-63
2023/07/04 10:39:43;0.00;0.00;0.62;0.00;0.00;0.62;1.87;1.27;;;28.90;24.30;;;;;;2232996;62;20403;-63
2023/07/04 10:42:36;0.00;0.00;0.62;0.00;0.00;0.62;2.07;1.20;;;28.90;24.40;;;;;;2230510;62;20399;-63
2023/07/04 10:45:25;0.00;0.00;0.62;0.00;0.00;0.62;1.90;1.40;;;28.90;24.30;;;;;;2232866;62;20375;-63
2023/07/04 10:48:16;0.00;0.00;0.62;0.00;0.00;0.62;2.50;1.37;;;28.90;24.30;;;;;;2230084;62;20387;-64
2023/07/04 10:51:07;0.00;0.00;0.62;0.00;0.00;0.62;2.63;1.67;;;28.90;24.30;;;;;;2232534;62;20400;-63
2023/07/04 10:53:52;0.00;0.00;0.62;0.00;0.00;0.62;1.80;1.40;;;28.90;24.30;;;;;;2233461;62;20435;-63
2023/07/04 10:56:42;0.00;0.00;0.62;0.00;0.00;0.62;1.80;1.33;;;28.90;24.30;;;;;;2233593;62;20428;-62
2023/07/04 10:59:30;0.00;0.00;0.62;0.00;0.00;0.62;1.97;1.23;;;29.00;24.40;;;;;;2228782;62;20990;-63
2023/07/04 11:02:27;0.00;0.00;0.62;0.00;0.00;0.62;1.97;1.30;;;28.90;24.30;;;;;;2233511;62;21012;-63